BAW52S EGLL-EHAM
Flight info
| Callsign | BAW52S |
|---|---|
| Flight time | 0h 45m |
| Altitude | 27000 |
| Route | BPK Q295 BRAIN M197 REDFA |
| Aircraft | A20N/M-SDE2E3FGHIRWXY/LB1 |
Departure
| Time | 2026-05-04 10:42 |
|---|---|
| Airport | London Heathrow Airport (EGLL) |
Arrival
| Time | 2026-05-04 11:27 |
|---|---|
| Airport | Amsterdam Airport Schiphol (EHAM) |
| Time | Latitude | Longitude | Altitude | Speed | Heading |
|---|---|---|---|---|---|
| 2026-05-04 09:42 | 51.47216 | -0.46235 | 91 ft | 0 kts | 55° |
| 2026-05-04 10:26 | 51.47216 | -0.46236 | 86 ft | 1 kts | 55° |
| 2026-05-04 10:26 | 51.47202 | -0.46267 | 89 ft | 4 kts | 53° |
| 2026-05-04 10:26 | 51.47185 | -0.46301 | 89 ft | 4 kts | 46° |
| 2026-05-04 10:27 | 51.47165 | -0.46328 | 88 ft | 4 kts | 14° |
| 2026-05-04 10:27 | 51.47152 | -0.46329 | 88 ft | 1 kts | 329° |
| 2026-05-04 10:31 | 51.47154 | -0.46331 | 88 ft | 2 kts | 329° |
| 2026-05-04 10:31 | 51.47181 | -0.46362 | 89 ft | 7 kts | 323° |
| 2026-05-04 10:32 | 51.47015 | -0.46865 | 86 ft | 12 kts | 181° |
| 2026-05-04 10:33 | 51.46926 | -0.46867 | 86 ft | 11 kts | 181° |
| 2026-05-04 10:33 | 51.46851 | -0.46866 | 88 ft | 7 kts | 178° |
| 2026-05-04 10:33 | 51.46795 | -0.46862 | 93 ft | 8 kts | 177° |
| 2026-05-04 10:33 | 51.46739 | -0.46860 | 93 ft | 8 kts | 179° |
| 2026-05-04 10:34 | 51.46676 | -0.46846 | 94 ft | 10 kts | 148° |
| 2026-05-04 10:34 | 51.46658 | -0.46739 | 94 ft | 11 kts | 90° |
| 2026-05-04 10:34 | 51.46658 | -0.46603 | 96 ft | 13 kts | 90° |
| 2026-05-04 10:34 | 51.46660 | -0.46439 | 93 ft | 15 kts | 89° |
| 2026-05-04 10:35 | 51.46660 | -0.46262 | 91 ft | 17 kts | 90° |
| 2026-05-04 10:35 | 51.46661 | -0.46069 | 87 ft | 17 kts | 89° |
| 2026-05-04 10:35 | 51.46662 | -0.45911 | 86 ft | 13 kts | 89° |
| 2026-05-04 10:35 | 51.46662 | -0.45762 | 85 ft | 14 kts | 90° |
| 2026-05-04 10:36 | 51.46662 | -0.45592 | 86 ft | 16 kts | 90° |
| 2026-05-04 10:36 | 51.46664 | -0.45410 | 88 ft | 16 kts | 89° |
| 2026-05-04 10:36 | 51.46665 | -0.45236 | 91 ft | 15 kts | 90° |
| 2026-05-04 10:36 | 51.46665 | -0.45061 | 93 ft | 16 kts | 90° |
| 2026-05-04 10:37 | 51.46666 | -0.44878 | 94 ft | 17 kts | 89° |
| 2026-05-04 10:37 | 51.46667 | -0.44678 | 93 ft | 17 kts | 89° |
| 2026-05-04 10:37 | 51.46669 | -0.44534 | 92 ft | 13 kts | 89° |
| 2026-05-04 10:37 | 51.46670 | -0.44370 | 90 ft | 16 kts | 90° |
| 2026-05-04 10:39 | 51.46617 | -0.43829 | 85 ft | 0 kts | 180° |
| 2026-05-04 10:40 | 51.46596 | -0.43829 | 84 ft | 5 kts | 180° |
| 2026-05-04 10:40 | 51.46575 | -0.43829 | 84 ft | 3 kts | 180° |
| 2026-05-04 10:40 | 51.46547 | -0.43830 | 85 ft | 5 kts | 182° |
| 2026-05-04 10:41 | 51.46516 | -0.43842 | 86 ft | 4 kts | 202° |
| 2026-05-04 10:41 | 51.46496 | -0.43875 | 87 ft | 5 kts | 237° |
| 2026-05-04 10:41 | 51.46493 | -0.43906 | 88 ft | 0 kts | 267° |
| 2026-05-04 10:41 | 51.46493 | -0.43909 | 88 ft | 3 kts | 268° |
| 2026-05-04 10:42 | 51.46493 | -0.44300 | 89 ft | 71 kts | 270° |
| 2026-05-04 10:42 | 51.46490 | -0.45447 | 89 ft | 132 kts | 269° |
| 2026-05-04 10:42 | 51.46481 | -0.47155 | 198 ft | 167 kts | 271° |
| 2026-05-04 10:42 | 51.46469 | -0.48992 | 886 ft | 162 kts | 271° |
| 2026-05-04 10:43 | 51.46517 | -0.50799 | 1533 ft | 168 kts | 283° |
| 2026-05-04 10:44 | 51.52298 | -0.66078 | 5164 ft | 270 kts | 336° |
| 2026-05-04 10:45 | 51.54104 | -0.66668 | 5281 ft | 272 kts | 4° |
| 2026-05-04 10:45 | 51.55905 | -0.65836 | 5398 ft | 272 kts | 31° |
| 2026-05-04 10:45 | 51.57289 | -0.63798 | 5498 ft | 271 kts | 53° |
| 2026-05-04 10:45 | 51.58356 | -0.61268 | 5591 ft | 270 kts | 58° |
| 2026-05-04 10:46 | 51.59360 | -0.58684 | 5906 ft | 274 kts | 58° |
| 2026-05-04 10:46 | 51.60417 | -0.56109 | 6796 ft | 276 kts | 56° |
| 2026-05-04 10:46 | 51.61517 | -0.53585 | 7683 ft | 283 kts | 55° |
| 2026-05-04 10:46 | 51.62598 | -0.50901 | 8592 ft | 287 kts | 63° |
| 2026-05-04 10:47 | 51.63487 | -0.47999 | 9538 ft | 292 kts | 64° |
| 2026-05-04 10:47 | 51.64400 | -0.45039 | 10345 ft | 300 kts | 64° |
| 2026-05-04 10:47 | 51.65365 | -0.41925 | 10733 ft | 323 kts | 64° |
| 2026-05-04 10:47 | 51.66403 | -0.38571 | 11103 ft | 344 kts | 64° |
| 2026-05-04 10:49 | 51.74158 | -0.13197 | 16431 ft | 374 kts | 69° |
| 2026-05-04 10:49 | 51.74982 | -0.09204 | 17142 ft | 376 kts | 77° |
| 2026-05-04 10:50 | 51.75456 | -0.05037 | 17849 ft | 379 kts | 84° |
| 2026-05-04 10:51 | 51.77979 | 0.25698 | 21983 ft | 409 kts | 84° |
| 2026-05-04 10:52 | 51.78341 | 0.30281 | 22540 ft | 413 kts | 84° |
| 2026-05-04 10:52 | 51.78712 | 0.34910 | 23097 ft | 418 kts | 84° |
| 2026-05-04 10:52 | 51.79088 | 0.39580 | 23643 ft | 422 kts | 84° |
| 2026-05-04 10:54 | 51.82388 | 0.73440 | 26570 ft | 453 kts | 78° |
| 2026-05-04 10:54 | 51.83147 | 0.78397 | 26807 ft | 455 kts | 78° |
| 2026-05-04 10:56 | 51.89336 | 1.12950 | 27021 ft | 459 kts | 76° |
| 2026-05-04 10:56 | 51.90232 | 1.17919 | 27022 ft | 459 kts | 76° |
| 2026-05-04 10:56 | 51.91124 | 1.22884 | 27022 ft | 459 kts | 76° |
| 2026-05-04 10:57 | 51.92014 | 1.27855 | 27026 ft | 459 kts | 76° |
| 2026-05-04 10:57 | 51.92902 | 1.32824 | 27023 ft | 459 kts | 76° |
| 2026-05-04 10:57 | 51.93788 | 1.37799 | 27021 ft | 459 kts | 76° |
| 2026-05-04 10:57 | 51.94672 | 1.42773 | 27016 ft | 459 kts | 76° |
| 2026-05-04 10:58 | 51.95553 | 1.47749 | 27003 ft | 459 kts | 76° |
| 2026-05-04 10:58 | 51.96433 | 1.52728 | 27022 ft | 460 kts | 76° |
| 2026-05-04 10:58 | 51.97311 | 1.57713 | 27023 ft | 460 kts | 76° |
| 2026-05-04 10:58 | 51.98187 | 1.62697 | 27018 ft | 460 kts | 76° |
| 2026-05-04 10:59 | 51.99062 | 1.67687 | 27018 ft | 460 kts | 76° |
| 2026-05-04 10:59 | 51.99905 | 1.72682 | 27009 ft | 459 kts | 78° |
| 2026-05-04 10:59 | 52.00687 | 1.77711 | 26784 ft | 458 kts | 78° |
| 2026-05-04 10:59 | 52.01446 | 1.82715 | 26529 ft | 455 kts | 78° |
| 2026-05-04 11:00 | 52.02200 | 1.87686 | 26272 ft | 453 kts | 78° |
| 2026-05-04 11:01 | 52.07445 | 2.22069 | 24542 ft | 443 kts | 77° |
| 2026-05-04 11:02 | 52.08188 | 2.26983 | 24301 ft | 441 kts | 77° |
| 2026-05-04 11:02 | 52.08907 | 2.31751 | 24068 ft | 439 kts | 77° |
| 2026-05-04 11:05 | 52.27358 | 2.92859 | 21710 ft | 422 kts | 59° |
| 2026-05-04 11:06 | 52.28835 | 2.96992 | 21432 ft | 420 kts | 59° |
| 2026-05-04 11:06 | 52.30306 | 3.01118 | 21171 ft | 420 kts | 59° |
| 2026-05-04 11:06 | 52.31772 | 3.05233 | 20879 ft | 418 kts | 59° |
| 2026-05-04 11:06 | 52.33237 | 3.09353 | 20335 ft | 419 kts | 59° |
| 2026-05-04 11:08 | 52.43117 | 3.37314 | 16469 ft | 390 kts | 60° |
| 2026-05-04 11:10 | 52.48229 | 3.66052 | 12755 ft | 366 kts | 77° |
| 2026-05-04 11:12 | 52.52053 | 3.93128 | 10306 ft | 314 kts | 78° |
| 2026-05-04 11:12 | 52.52260 | 3.96629 | 10083 ft | 303 kts | 95° |
| 2026-05-04 11:12 | 52.51787 | 3.99927 | 9875 ft | 292 kts | 114° |
| 2026-05-04 11:12 | 52.51011 | 4.03029 | 9760 ft | 295 kts | 114° |
| 2026-05-04 11:13 | 52.50245 | 4.06153 | 9641 ft | 295 kts | 113° |
| 2026-05-04 11:13 | 52.49486 | 4.09270 | 9515 ft | 293 kts | 113° |
| 2026-05-04 11:13 | 52.48730 | 4.12376 | 9396 ft | 293 kts | 113° |
| 2026-05-04 11:13 | 52.47974 | 4.15474 | 9279 ft | 292 kts | 113° |
| 2026-05-04 11:14 | 52.47218 | 4.18563 | 9157 ft | 292 kts | 113° |
| 2026-05-04 11:14 | 52.46462 | 4.21648 | 9033 ft | 291 kts | 113° |
| 2026-05-04 11:14 | 52.45706 | 4.24722 | 8919 ft | 290 kts | 113° |
| 2026-05-04 11:16 | 52.40445 | 4.46026 | 8093 ft | 285 kts | 113° |
| 2026-05-04 11:16 | 52.39698 | 4.49035 | 7973 ft | 285 kts | 113° |
| 2026-05-04 11:16 | 52.38953 | 4.52032 | 7863 ft | 284 kts | 113° |
| 2026-05-04 11:17 | 52.38207 | 4.55028 | 7744 ft | 284 kts | 113° |
| 2026-05-04 11:17 | 52.37461 | 4.58017 | 7620 ft | 283 kts | 113° |
| 2026-05-04 11:19 | 52.34615 | 4.77312 | 6855 ft | 249 kts | 50° |
| 2026-05-04 11:19 | 52.36297 | 4.79879 | 6364 ft | 250 kts | 39° |
| 2026-05-04 11:19 | 52.37639 | 4.81678 | 6064 ft | 248 kts | 39° |
| 2026-05-04 11:19 | 52.38956 | 4.83468 | 5789 ft | 245 kts | 39° |
| 2026-05-04 11:20 | 52.39764 | 4.84789 | 5608 ft | 242 kts | 55° |
| 2026-05-04 11:20 | 52.40368 | 4.87314 | 5348 ft | 242 kts | 84° |
| 2026-05-04 11:20 | 52.40471 | 4.90072 | 5071 ft | 243 kts | 87° |
| 2026-05-04 11:20 | 52.40553 | 4.92816 | 4802 ft | 240 kts | 88° |
| 2026-05-04 11:22 | 52.38324 | 5.08567 | 3051 ft | 219 kts | 178° |
| 2026-05-04 11:22 | 52.36796 | 5.08673 | 2807 ft | 219 kts | 180° |
| 2026-05-04 11:23 | 52.35326 | 5.08210 | 2560 ft | 215 kts | 206° |
| 2026-05-04 11:23 | 52.34081 | 5.06838 | 2328 ft | 217 kts | 218° |
| 2026-05-04 11:24 | 52.32360 | 4.94527 | 2349 ft | 209 kts | 266° |
| 2026-05-04 11:25 | 52.32273 | 4.92024 | 2232 ft | 231 kts | 266° |
| 2026-05-04 11:25 | 52.32190 | 4.89305 | 1812 ft | 245 kts | 267° |
| 2026-05-04 11:25 | 52.32132 | 4.86577 | 1310 ft | 229 kts | 267° |
| 2026-05-04 11:26 | 52.31965 | 4.81817 | 402 ft | 193 kts | 265° |
| 2026-05-04 11:27 | 52.31650 | 4.76791 | 15 ft | 0 kts | 237° |
| 2026-05-04 11:28 | 52.31649 | 4.76789 | 15 ft | 0 kts | 237° |
| 2026-05-04 11:28 | 52.31644 | 4.76776 | 15 ft | 3 kts | 237° |
| 2026-05-04 11:28 | 52.31627 | 4.76734 | 15 ft | 6 kts | 237° |
| 2026-05-04 11:28 | 52.31599 | 4.76679 | 14 ft | 0 kts | 220° |
| 2026-05-04 11:29 | 52.31598 | 4.76678 | 14 ft | 1 kts | 218° |
| 2026-05-04 11:29 | 52.31551 | 4.76672 | 12 ft | 11 kts | 175° |
| 2026-05-04 11:29 | 52.31471 | 4.76664 | 10 ft | 6 kts | 197° |
| 2026-05-04 11:29 | 52.31438 | 4.76633 | 10 ft | 3 kts | 213° |
| 2026-05-04 11:31 | 52.31323 | 4.76665 | 6 ft | 0 kts | 124° |